Time;durP1;ratioP1;P1;durP2;ratioP2;P2;SDS_P1;SDS_P2;PMS_P1;PMS_P2;Temp;Humidity;BMP_temperature;BMP_pressure;BME280_temperature;BME280_humidity;BME280_pressure;Samples;Min_cycle;Max_cycle;Signal;HPM_P1;HPM_P2
2022/10/19 00:02:29;;;;;;;1.88;0.93;;;21.80;53.30;;;;;;20997218;28;20051;-77
2022/10/19 00:12:29;;;;;;;3.05;0.75;;;21.80;53.40;;;;;;20992238;28;20035;-77
2022/10/19 00:22:32;;;;;;;2.30;0.93;;;21.70;53.30;;;;;;20999797;28;20044;-78
2022/10/19 00:32:34;;;;;;;1.45;0.70;;;21.70;53.40;;;;;;20959227;28;20496;-77
2022/10/19 00:42:35;;;;;;;2.33;1.10;;;21.70;53.50;;;;;;20977358;28;20060;-78
2022/10/19 00:52:37;;;;;;;1.52;0.88;;;21.60;53.40;;;;;;20979119;28;20081;-76
2022/10/19 01:02:39;;;;;;;2.22;0.90;;;21.60;53.40;;;;;;20964259;28;20041;-76
2022/10/19 01:13:18;;;;;;;1.33;0.88;;;21.60;53.40;;;;;;20999008;28;20050;-76
2022/10/19 01:23:45;;;;;;;2.22;0.77;;;21.50;53.40;;;;;;21010362;28;20478;-75
2022/10/19 01:34:08;;;;;;;2.92;1.02;;;21.50;53.40;;;;;;20946934;28;20040;-75
2022/10/19 01:44:13;;;;;;;3.47;0.68;;;21.50;53.50;;;;;;20982612;28;20130;-77
2022/10/19 02:04:30;;;;;;;2.13;0.77;;;21.40;53.60;;;;;;20678049;22;19925;-76
2022/10/19 02:14:38;;;;;;;1.45;0.80;;;21.40;53.90;;;;;;20655898;28;20127;-76
2022/10/19 02:24:39;;;;;;;1.95;0.60;;;21.30;53.60;;;;;;20662474;28;20042;-76
2022/10/19 02:34:43;;;;;;;2.93;1.00;;;21.30;53.70;;;;;;20690518;28;20039;-76
2022/10/19 02:45:12;;;;;;;2.75;0.70;;;21.30;53.70;;;;;;20692190;28;20631;-75
2022/10/19 02:55:12;;;;;;;1.63;0.60;;;21.30;53.80;;;;;;20680575;28;20116;-76
2022/10/19 03:05:14;;;;;;;4.30;0.70;;;21.20;53.80;;;;;;20653911;28;20044;-78
2022/10/19 03:15:16;;;;;;;2.38;0.80;;;21.20;53.90;;;;;;20708052;28;20030;-76
2022/10/19 03:25:17;;;;;;;2.45;0.77;;;21.20;53.90;;;;;;20679009;28;20129;-78
2022/10/19 03:35:19;;;;;;;2.92;0.80;;;21.20;54.00;;;;;;20700579;28;20037;-77
2022/10/19 03:45:19;;;;;;;2.05;0.50;;;21.10;54.10;;;;;;20676650;28;20050;-77
2022/10/19 03:55:20;;;;;;;1.90;0.63;;;21.10;54.10;;;;;;20695703;28;20033;-77
2022/10/19 04:05:21;;;;;;;1.15;0.40;;;21.10;54.20;;;;;;20695591;28;20042;-78
2022/10/19 04:15:21;;;;;;;2.92;0.60;;;21.00;54.20;;;;;;20659559;28;20141;-77
2022/10/19 04:25:22;;;;;;;1.35;0.50;;;21.00;54.20;;;;;;20682549;28;20077;-77
2022/10/19 04:35:24;;;;;;;1.55;0.70;;;21.00;54.30;;;;;;20690550;28;20022;-77
2022/10/19 04:45:24;;;;;;;1.27;0.50;;;20.90;54.30;;;;;;20659343;28;20038;-78
2022/10/19 04:55:26;;;;;;;0.85;0.60;;;21.00;54.40;;;;;;20686106;28;20034;-78
2022/10/19 05:05:28;;;;;;;0.90;0.65;;;20.90;54.40;;;;;;20713511;28;20038;-77
2022/10/19 05:15:29;;;;;;;1.27;0.70;;;20.90;54.40;;;;;;20664067;28;20480;-78
2022/10/19 05:25:30;;;;;;;1.65;0.55;;;20.90;54.50;;;;;;20643475;28;20374;-78
2022/10/19 05:35:33;;;;;;;3.92;0.40;;;20.90;54.50;;;;;;20659547;28;20061;-78
2022/10/19 05:45:33;;;;;;;1.63;0.60;;;20.90;54.50;;;;;;20667352;28;20084;-78
2022/10/19 05:55:35;;;;;;;2.13;0.57;;;20.80;54.50;;;;;;20678181;28;20030;-78
2022/10/19 06:05:36;;;;;;;2.85;0.43;;;20.80;54.50;;;;;;20697769;28;20485;-79
2022/10/19 06:15:39;;;;;;;2.00;0.50;;;20.80;54.40;;;;;;20696821;28;20036;-79
2022/10/19 06:25:40;;;;;;;1.65;0.40;;;20.70;54.20;;;;;;20682145;28;20400;-79
2022/10/19 06:35:43;;;;;;;2.03;0.80;;;20.70;54.20;;;;;;20711300;28;20042;-77
2022/10/19 06:45:44;;;;;;;0.80;0.32;;;20.70;54.10;;;;;;20682316;28;20061;-76
2022/10/19 06:55:45;;;;;;;1.55;0.65;;;20.70;54.20;;;;;;20690422;28;20129;-74
2022/10/19 07:05:55;;;;;;;1.40;0.65;;;20.70;54.20;;;;;;20663657;28;20040;-73
2022/10/19 07:16:07;;;;;;;1.23;0.35;;;20.60;54.10;;;;;;20665292;28;20101;-73
2022/10/19 07:26:16;;;;;;;1.63;0.68;;;20.60;54.00;;;;;;20657469;28;20392;-72
2022/10/19 07:36:16;;;;;;;1.92;0.82;;;20.60;54.00;;;;;;20652610;28;20092;-75
2022/10/19 07:46:22;;;;;;;2.80;0.60;;;20.60;54.10;;;;;;20674048;28;20038;-73
2022/10/19 07:56:29;;;;;;;0.93;0.47;;;20.50;54.10;;;;;;20680779;28;20115;-74
2022/10/19 08:06:30;;;;;;;1.55;0.52;;;20.50;54.10;;;;;;20677231;28;20666;-75
2022/10/19 08:16:36;;;;;;;2.42;0.50;;;20.50;54.10;;;;;;20670365;28;20034;-74
2022/10/19 08:26:37;;;;;;;;;;;20.50;54.20;;;;;;20645545;28;20048;-74
2022/10/19 08:36:39;;;;;;;1.23;0.50;;;20.50;54.30;;;;;;20681456;28;19909;-73
2022/10/19 08:47:06;;;;;;;0.75;0.30;;;20.50;54.40;;;;;;20666867;28;20040;-75
2022/10/19 08:57:12;;;;;;;2.28;0.32;;;20.40;54.40;;;;;;20640126;28;20108;-76
2022/10/19 09:07:28;;;;;;;1.40;0.43;;;20.40;54.40;;;;;;20655904;28;20096;-75
2022/10/19 09:17:29;;;;;;;2.08;0.60;;;20.40;54.40;;;;;;20664163;28;20547;-75
2022/10/19 09:27:34;;;;;;;1.38;0.38;;;20.40;54.40;;;;;;20635502;28;20042;-75
2022/10/19 09:37:38;;;;;;;1.02;0.38;;;20.40;54.40;;;;;;20663630;28;20038;-74
2022/10/19 09:47:40;;;;;;;2.28;0.43;;;20.30;54.30;;;;;;20662923;28;20401;-79
2022/10/19 09:57:48;;;;;;;0.98;0.43;;;20.30;54.30;;;;;;20670081;28;20049;-77
2022/10/19 10:07:49;;;;;;;1.65;0.70;;;20.40;54.40;;;;;;20643398;28;20069;-76
2022/10/19 10:17:50;;;;;;;0.93;0.30;;;20.40;54.30;;;;;;20657945;28;20034;-73
2022/10/19 10:28:01;;;;;;;1.13;0.30;;;20.40;54.20;;;;;;20671977;28;20038;-76
2022/10/19 10:38:07;;;;;;;0.70;0.30;;;20.50;54.20;;;;;;20702842;28;20836;-76
2022/10/19 10:48:27;;;;;;;0.38;0.38;;;20.50;54.20;;;;;;20654159;28;20042;-75
2022/10/19 10:58:42;;;;;;;2.35;0.70;;;20.50;54.10;;;;;;20667566;28;20357;-77
2022/10/19 11:08:55;;;;;;;0.57;0.30;;;20.50;54.10;;;;;;20662708;28;20049;-76
2022/10/19 11:19:34;;;;;;;0.77;0.30;;;20.60;54.10;;;;;;20683369;28;20038;-76
2022/10/19 11:29:40;;;;;;;0.25;0.20;;;20.60;54.00;;;;;;20572598;28;20124;-74
2022/10/19 11:39:59;;;;;;;1.77;0.30;;;20.60;53.90;;;;;;20735227;28;20104;-74
2022/10/19 11:50:38;;;;;;;2.30;0.52;;;20.60;53.80;;;;;;20713991;28;20030;-76
2022/10/19 12:01:03;;;;;;;0.93;0.30;;;20.70;53.70;;;;;;20715994;28;20472;-76
2022/10/19 12:11:40;;;;;;;1.00;0.20;;;20.70;53.60;;;;;;20695948;28;20483;-76
2022/10/19 12:21:44;;;;;;;0.85;0.30;;;20.70;53.50;;;;;;20694699;28;20054;-75
2022/10/19 12:31:45;;;;;;;1.75;0.40;;;20.70;53.40;;;;;;20674216;28;20609;-75
2022/10/19 12:41:58;;;;;;;0.28;0.25;;;20.70;53.40;;;;;;20645815;28;20050;-76
2022/10/19 12:51:59;;;;;;;0.85;0.32;;;20.80;53.40;;;;;;20683725;28;20053;-75
2022/10/19 13:02:01;;;;;;;0.77;0.22;;;20.90;53.30;;;;;;20653687;28;20078;-74
2022/10/19 13:12:14;;;;;;;0.47;0.30;;;21.00;53.10;;;;;;20701283;28;20034;-76
2022/10/19 13:22:26;;;;;;;1.38;0.30;;;21.10;52.90;;;;;;20679036;28;20486;-78
2022/10/19 13:32:44;;;;;;;0.77;0.20;;;21.20;52.60;;;;;;20681522;28;20084;-76
2022/10/19 13:42:44;;;;;;;0.68;0.20;;;21.30;52.30;;;;;;20647971;28;20041;-76
2022/10/19 13:53:14;;;;;;;0.63;0.20;;;21.40;52.10;;;;;;20675195;28;20052;-75
2022/10/19 14:03:25;;;;;;;0.57;0.20;;;21.40;52.00;;;;;;20707212;28;20056;-75
2022/10/19 14:13:27;;;;;;;1.98;0.28;;;21.50;52.00;;;;;;20712505;28;20037;-75
2022/10/19 14:23:29;;;;;;;0.22;0.20;;;21.50;51.80;;;;;;20695730;28;20038;-76
2022/10/19 14:33:32;;;;;;;0.70;0.10;;;21.50;51.80;;;;;;20688223;28;20034;-75
2022/10/19 14:43:33;;;;;;;1.05;0.95;;;21.50;51.70;;;;;;20698975;28;20042;-74
2022/10/19 14:54:02;;;;;;;1.67;0.30;;;21.50;51.70;;;;;;20704781;28;20531;-75
2022/10/19 15:04:03;;;;;;;0.22;0.20;;;21.50;51.70;;;;;;20700317;28;20109;-74
2022/10/19 15:14:13;;;;;;;0.20;0.17;;;21.50;51.80;;;;;;20706294;28;20101;-78
2022/10/19 15:24:26;;;;;;;0.85;0.32;;;21.50;52.40;;;;;;20705562;28;20519;-77
2022/10/19 15:34:29;;;;;;;0.55;0.35;;;21.50;51.80;;;;;;20696930;28;20034;-77
2022/10/19 15:44:39;;;;;;;1.83;0.30;;;21.40;51.90;;;;;;20700326;28;20400;-78
2022/10/19 15:54:40;;;;;;;0.63;0.20;;;21.50;51.80;;;;;;20696140;28;20045;-77
2022/10/19 16:04:40;;;;;;;0.40;0.22;;;21.50;51.70;;;;;;20669287;28;20486;-73
2022/10/19 16:14:42;;;;;;;0.10;0.10;;;21.40;51.70;;;;;;20722046;28;20471;-75
2022/10/19 16:24:45;;;;;;;1.55;0.25;;;21.50;51.80;;;;;;20657715;28;20388;-76
2022/10/19 16:34:46;;;;;;;0.88;0.30;;;21.40;51.80;;;;;;20651215;28;20077;-76
2022/10/19 16:44:46;;;;;;;0.82;0.32;;;21.40;51.90;;;;;;20679648;28;20042;-77
2022/10/19 16:54:47;;;;;;;1.02;0.22;;;21.30;51.90;;;;;;20683721;28;20188;-77
2022/10/19 17:04:47;;;;;;;1.17;0.33;;;21.30;52.00;;;;;;20684050;28;20060;-77
2022/10/19 17:14:50;;;;;;;0.45;0.20;;;21.30;52.00;;;;;;20695524;28;20289;-76
2022/10/19 17:24:50;;;;;;;0.20;0.17;;;21.20;52.00;;;;;;20688859;28;20037;-75
2022/10/19 17:34:53;;;;;;;0.43;0.30;;;21.20;52.10;;;;;;20688780;28;20072;-79
2022/10/19 17:44:56;;;;;;;0.43;0.30;;;21.20;52.20;;;;;;20685704;28;20088;-77
2022/10/19 17:54:57;;;;;;;1.45;0.40;;;21.10;52.10;;;;;;20684739;28;20030;-84
2022/10/19 18:04:57;;;;;;;0.70;0.40;;;21.00;52.30;;;;;;20669771;28;20054;-85
2022/10/19 18:15:04;;;;;;;1.15;0.55;;;21.00;52.20;;;;;;20717106;28;20034;-84
2022/10/19 18:25:06;;;;;;;2.25;0.65;;;21.00;52.20;;;;;;20735380;28;20406;-83
2022/10/19 18:35:09;;;;;;;1.08;0.40;;;21.00;52.20;;;;;;20726014;28;20116;-84
2022/10/19 18:45:11;;;;;;;2.00;0.68;;;20.90;52.20;;;;;;20676581;28;20491;-79
2022/10/19 18:55:11;;;;;;;1.52;0.45;;;20.90;52.10;;;;;;20669338;28;20046;-81
2022/10/19 19:05:12;;;;;;;1.83;0.60;;;20.80;52.40;;;;;;20692580;28;20048;-84
2022/10/19 19:15:15;;;;;;;5.88;1.23;;;20.80;52.20;;;;;;20703324;28;20277;-79
2022/10/19 19:25:16;;;;;;;2.75;1.23;;;20.80;52.30;;;;;;20650993;28;20093;-73
2022/10/19 19:35:17;;;;;;;4.93;0.60;;;20.80;52.40;;;;;;20682132;28;20255;-83
2022/10/19 19:45:18;;;;;;;2.22;0.45;;;20.80;52.10;;;;;;20688441;28;20050;-79
2022/10/19 19:55:20;;;;;;;1.77;0.67;;;20.80;52.10;;;;;;20678646;28;20045;-80
2022/10/19 20:05:20;;;;;;;1.67;0.70;;;20.70;51.80;;;;;;20676311;28;20294;-81
2022/10/19 20:15:21;;;;;;;1.10;0.50;;;20.70;52.30;;;;;;20701588;28;20034;-80
2022/10/19 20:25:22;;;;;;;1.93;0.40;;;20.60;51.60;;;;;;20694444;28;20309;-80
2022/10/19 20:35:22;;;;;;;4.03;0.57;;;20.60;51.60;;;;;;20682135;28;20300;-80
2022/10/19 20:45:23;;;;;;;2.38;0.50;;;20.60;51.50;;;;;;20695312;28;20484;-80
2022/10/19 20:55:24;;;;;;;1.05;0.52;;;20.50;51.40;;;;;;20669257;28;20473;-80
2022/10/19 21:05:24;;;;;;;1.85;0.63;;;20.50;51.40;;;;;;20674908;28;20033;-80
2022/10/19 21:15:25;;;;;;;2.47;0.60;;;20.50;51.30;;;;;;20689764;28;20481;-79
2022/10/19 21:25:29;;;;;;;1.05;0.50;;;20.40;51.30;;;;;;20684886;28;20046;-80
2022/10/19 21:35:29;;;;;;;1.48;0.52;;;20.40;51.20;;;;;;20658804;28;20154;-79
2022/10/19 21:45:30;;;;;;;3.13;0.50;;;20.40;51.20;;;;;;20662788;28;20038;-80
2022/10/19 21:55:34;;;;;;;1.48;0.57;;;20.30;51.10;;;;;;20695118;28;20091;-80
2022/10/19 22:05:35;;;;;;;2.15;0.50;;;20.30;51.10;;;;;;20698781;28;20042;-80
2022/10/19 22:15:37;;;;;;;1.52;0.63;;;20.30;51.10;;;;;;20682841;28;20030;-79
2022/10/19 22:25:43;;;;;;;2.03;0.80;;;20.20;51.00;;;;;;20646780;28;20049;-81
2022/10/19 22:35:52;;;;;;;1.13;0.60;;;20.20;51.00;;;;;;20681866;28;20500;-80
2022/10/19 22:45:53;;;;;;;1.10;0.60;;;20.20;50.90;;;;;;20663929;28;20052;-79
2022/10/19 22:55:54;;;;;;;1.70;0.90;;;20.20;51.10;;;;;;20708003;28;20058;-80
2022/10/19 23:05:56;;;;;;;2.30;0.70;;;20.10;50.80;;;;;;20700559;28;20659;-81
2022/10/19 23:15:57;;;;;;;1.05;0.50;;;20.10;50.80;;;;;;20727527;28;20041;-80
2022/10/19 23:26:05;;;;;;;2.40;0.70;;;20.10;50.90;;;;;;20683518;28;20495;-80
2022/10/19 23:36:20;;;;;;;0.88;0.60;;;20.00;50.80;;;;;;20699331;28;20342;-80
2022/10/19 23:46:21;;;;;;;2.75;0.60;;;20.00;50.80;;;;;;20694234;28;20038;-80
2022/10/19 23:56:26;;;;;;;1.45;0.55;;;20.00;50.80;;;;;;20677153;28;20033;-80
